createdAt,value
2017-08-31T00:00:15.827Z,81.70
2017-08-31T00:02:44.000Z,82.20
2017-08-31T00:05:11.933Z,82.60
2017-08-31T00:07:39.588Z,82.60
2017-08-31T00:10:07.586Z,82.80
2017-08-31T00:12:35.277Z,82.70
2017-08-31T00:15:02.939Z,82.10
2017-08-31T00:17:32.728Z,82.10
2017-08-31T00:20:01.180Z,82.20
2017-08-31T00:22:28.867Z,82.00
2017-08-31T00:24:56.795Z,81.70
2017-08-31T00:27:24.447Z,82.30
2017-08-31T00:29:52.094Z,81.90
2017-08-31T00:32:19.845Z,82.40
2017-08-31T00:34:47.518Z,82.70
2017-08-31T00:37:15.516Z,82.80
2017-08-31T00:39:43.685Z,82.90
2017-08-31T00:42:11.368Z,82.80
2017-08-31T00:44:39.930Z,82.90
2017-08-31T00:47:07.973Z,82.80
2017-08-31T00:52:20.353Z,83.10
2017-08-31T00:54:48.046Z,83.50
2017-08-31T00:57:15.758Z,83.60
2017-08-31T00:59:43.658Z,84.30
2017-08-31T01:02:11.311Z,84.90
2017-08-31T01:04:38.982Z,85.10
2017-08-31T01:07:06.837Z,84.80
2017-08-31T01:09:34.490Z,84.90
2017-08-31T01:12:02.154Z,85.10
2017-08-31T01:14:30.029Z,85.10
2017-08-31T01:16:57.671Z,85.00
2017-08-31T01:19:25.382Z,85.00
2017-08-31T01:21:53.314Z,84.70
2017-08-31T01:24:21.026Z,84.40
2017-08-31T01:26:48.745Z,83.90
2017-08-31T01:29:16.710Z,83.10
2017-08-31T01:31:44.429Z,82.80
2017-08-31T01:34:12.119Z,82.80
2017-08-31T01:36:39.818Z,83.20
2017-08-31T01:39:07.515Z,82.60
2017-08-31T01:41:35.203Z,82.50
2017-08-31T01:44:03.086Z,82.30
2017-08-31T01:46:30.780Z,82.50
2017-08-31T01:48:58.513Z,82.40
2017-08-31T01:51:26.506Z,82.40
2017-08-31T01:53:54.199Z,82.90
2017-08-31T01:56:21.871Z,83.20
2017-08-31T01:58:49.601Z,83.70
2017-08-31T02:01:17.295Z,85.00
2017-08-31T02:03:44.949Z,85.40
2017-08-31T02:06:12.858Z,85.30
2017-08-31T02:08:40.538Z,85.20
2017-08-31T02:11:08.211Z,85.00
2017-08-31T02:13:35.904Z,85.20
2017-08-31T02:16:03.562Z,85.00
2017-08-31T02:18:31.238Z,85.30
2017-08-31T02:20:58.998Z,85.30
2017-08-31T02:23:26.667Z,85.00
2017-08-31T02:25:54.367Z,85.50
2017-08-31T02:28:22.220Z,85.60
2017-08-31T02:30:49.886Z,85.90
2017-08-31T02:33:17.615Z,85.90
2017-08-31T02:35:45.614Z,86.50
2017-08-31T02:38:13.278Z,86.60
2017-08-31T02:40:40.974Z,87.30
2017-08-31T02:43:08.690Z,87.40
2017-08-31T02:45:36.364Z,87.30
2017-08-31T02:48:03.998Z,88.10
2017-08-31T02:50:31.891Z,88.20
2017-08-31T02:52:59.541Z,88.50
2017-08-31T02:55:27.182Z,88.40
2017-08-31T02:57:55.024Z,89.00
2017-08-31T03:00:22.690Z,89.40
2017-08-31T03:02:50.346Z,89.40
2017-08-31T03:05:18.377Z,90.00
2017-08-31T03:07:46.015Z,90.00
2017-08-31T03:10:13.669Z,90.30
2017-08-31T03:12:41.564Z,90.30
2017-08-31T03:15:09.227Z,90.30
2017-08-31T03:17:36.887Z,90.30
2017-08-31T03:20:04.594Z,90.60
2017-08-31T03:22:32.251Z,90.40
2017-08-31T03:25:00.086Z,90.40
2017-08-31T03:27:27.897Z,90.50
2017-08-31T03:29:55.545Z,90.60
2017-08-31T03:32:23.207Z,90.50
2017-08-31T03:34:50.903Z,90.60
2017-08-31T03:37:18.562Z,90.70
2017-08-31T03:39:46.225Z,90.80
2017-08-31T03:42:14.111Z,90.90
2017-08-31T03:44:41.770Z,90.90
2017-08-31T03:47:09.422Z,91.00
2017-08-31T03:49:37.302Z,91.10
2017-08-31T03:52:04.954Z,91.10
2017-08-31T03:54:32.649Z,91.20
2017-08-31T03:57:00.593Z,91.30
2017-08-31T03:59:28.238Z,91.20
2017-08-31T04:01:55.900Z,91.20
2017-08-31T04:04:23.710Z,91.60
2017-08-31T04:06:51.375Z,91.60
2017-08-31T04:09:19.071Z,91.60
2017-08-31T04:11:46.877Z,91.60
2017-08-31T04:14:14.538Z,91.40
2017-08-31T04:16:42.200Z,91.40
2017-08-31T04:19:09.942Z,91.30
2017-08-31T04:21:37.625Z,91.30
2017-08-31T04:24:05.273Z,91.40
2017-08-31T04:26:33.138Z,91.40
2017-08-31T04:29:00.801Z,91.50
2017-08-31T04:31:28.536Z,91.40
2017-08-31T04:33:56.324Z,91.40
2017-08-31T04:36:23.985Z,91.30
2017-08-31T04:38:51.634Z,91.30
2017-08-31T04:41:19.369Z,91.30
2017-08-31T04:43:47.069Z,91.40
2017-08-31T04:46:14.721Z,91.40
2017-08-31T04:48:42.637Z,91.30
2017-08-31T04:51:10.321Z,91.20
2017-08-31T04:53:38.000Z,91.30
2017-08-31T04:56:05.763Z,91.30
2017-08-31T04:58:33.413Z,91.20
2017-08-31T05:01:01.131Z,91.40
2017-08-31T05:03:29.116Z,91.50
2017-08-31T05:05:58.126Z,91.90
2017-08-31T05:08:25.850Z,91.90
2017-08-31T05:10:54.089Z,91.90
2017-08-31T05:13:21.814Z,91.80
2017-08-31T05:15:49.496Z,91.60
2017-08-31T05:18:17.892Z,91.60
2017-08-31T05:20:45.598Z,91.60
2017-08-31T05:23:13.270Z,91.80
2017-08-31T05:25:41.111Z,91.40
2017-08-31T05:28:08.810Z,91.10
2017-08-31T05:30:36.496Z,91.30
2017-08-31T05:33:04.404Z,90.70
2017-08-31T05:35:32.075Z,90.40
2017-08-31T05:37:59.739Z,90.10
2017-08-31T05:40:27.603Z,88.30
2017-08-31T05:42:55.262Z,87.30
2017-08-31T05:45:22.929Z,86.00
2017-08-31T05:47:50.823Z,84.80
2017-08-31T05:50:18.515Z,84.60
2017-08-31T05:52:46.186Z,84.20
2017-08-31T05:55:14.801Z,83.70
2017-08-31T05:57:42.467Z,84.40
2017-08-31T06:00:10.127Z,83.80
2017-08-31T06:02:37.840Z,84.30
2017-08-31T06:05:05.524Z,84.10
2017-08-31T06:07:33.282Z,83.50
2017-08-31T06:10:01.280Z,83.60
2017-08-31T06:12:28.972Z,82.90
2017-08-31T06:14:56.669Z,83.50
2017-08-31T06:17:24.473Z,83.30
2017-08-31T06:19:52.132Z,82.20
2017-08-31T06:22:19.785Z,80.80
2017-08-31T06:24:47.483Z,79.10
2017-08-31T06:27:15.122Z,77.00
2017-08-31T06:29:42.806Z,76.20
2017-08-31T06:32:11.062Z,72.80
2017-08-31T06:34:38.732Z,70.00
2017-08-31T06:37:06.390Z,67.80
2017-08-31T06:39:34.375Z,62.60
2017-08-31T06:42:02.039Z,60.00
2017-08-31T06:44:29.733Z,58.00
2017-08-31T06:46:57.546Z,55.60
2017-08-31T06:49:25.208Z,55.20
2017-08-31T06:51:52.874Z,54.70
2017-08-31T06:54:20.815Z,53.90
2017-08-31T06:56:48.476Z,52.20
2017-08-31T06:59:16.181Z,51.60
2017-08-31T07:01:44.214Z,49.70
2017-08-31T07:04:11.876Z,48.60
2017-08-31T07:06:39.529Z,47.20
2017-08-31T07:09:07.613Z,47.00
2017-08-31T07:11:35.271Z,46.40
2017-08-31T07:14:02.931Z,47.00
2017-08-31T07:16:30.821Z,48.90
2017-08-31T07:18:58.492Z,47.60
2017-08-31T07:21:26.162Z,47.20
2017-08-31T07:23:54.084Z,47.60
2017-08-31T07:26:21.747Z,46.50
2017-08-31T07:28:49.424Z,45.80
2017-08-31T07:31:17.378Z,46.00
2017-08-31T07:33:45.026Z,46.50
2017-08-31T07:36:12.691Z,46.60
2017-08-31T07:38:40.500Z,48.50
2017-08-31T07:41:08.153Z,49.10
2017-08-31T07:43:36.674Z,49.50
2017-08-31T07:46:04.408Z,49.50
2017-08-31T07:48:32.264Z,49.20
2017-08-31T07:51:00.701Z,48.60
2017-08-31T07:53:28.687Z,48.60
2017-08-31T07:55:56.346Z,46.40
2017-08-31T07:58:24.014Z,45.80
2017-08-31T08:00:51.842Z,44.50
2017-08-31T08:03:19.496Z,44.30
2017-08-31T08:05:47.235Z,44.20
2017-08-31T08:08:15.141Z,44.80
2017-08-31T08:10:43.091Z,44.90
2017-08-31T08:13:10.763Z,45.80
2017-08-31T08:15:39.012Z,46.70
2017-08-31T08:18:06.692Z,46.30
2017-08-31T08:20:34.665Z,45.80
2017-08-31T08:23:03.177Z,47.30
2017-08-31T08:25:31.320Z,47.60
2017-08-31T08:27:59.398Z,48.70
2017-08-31T08:30:27.573Z,50.30
2017-08-31T08:32:55.759Z,52.00
2017-08-31T08:35:24.117Z,53.00
2017-08-31T08:37:52.253Z,54.30
2017-08-31T08:40:20.403Z,55.90
2017-08-31T08:42:48.536Z,57.20
2017-08-31T08:45:16.600Z,57.70
2017-08-31T08:47:44.721Z,59.00
2017-08-31T08:50:12.599Z,58.80
2017-08-31T08:52:40.792Z,59.10
2017-08-31T08:55:08.784Z,59.10
2017-08-31T08:57:36.676Z,59.10
2017-08-31T09:00:04.730Z,59.10
2017-08-31T09:02:32.696Z,58.30
2017-08-31T09:05:00.691Z,57.80
2017-08-31T09:07:28.590Z,57.90
2017-08-31T09:09:56.522Z,56.60
2017-08-31T09:12:24.191Z,55.50
2017-08-31T09:14:52.419Z,56.10
2017-08-31T09:17:20.439Z,55.50
2017-08-31T09:19:48.470Z,54.10
2017-08-31T09:22:16.730Z,53.10
2017-08-31T09:24:44.403Z,54.70
2017-08-31T09:27:12.182Z,55.60
2017-08-31T09:29:40.015Z,56.60
2017-08-31T09:32:07.686Z,57.60
2017-08-31T09:34:35.362Z,57.70
2017-08-31T09:37:03.261Z,55.40
2017-08-31T09:39:30.930Z,55.20
2017-08-31T09:41:58.580Z,55.40
2017-08-31T09:44:26.273Z,54.40
2017-08-31T09:46:53.910Z,55.20
2017-08-31T09:49:21.577Z,56.30
2017-08-31T09:51:49.399Z,57.50
2017-08-31T09:54:17.078Z,57.70
2017-08-31T09:56:44.720Z,58.50
2017-08-31T09:59:12.830Z,58.80
2017-08-31T10:01:40.510Z,58.80
2017-08-31T10:04:08.315Z,59.20
2017-08-31T10:06:36.322Z,59.30
2017-08-31T10:09:04.053Z,59.40
2017-08-31T10:11:31.715Z,59.70
2017-08-31T10:13:59.578Z,60.60
2017-08-31T10:16:27.269Z,60.50
2017-08-31T10:18:54.925Z,60.90
2017-08-31T10:21:22.796Z,60.90
2017-08-31T10:23:50.453Z,60.90
2017-08-31T10:26:18.103Z,62.20
2017-08-31T10:28:45.824Z,61.70
2017-08-31T10:31:13.470Z,62.20
2017-08-31T10:33:41.156Z,62.70
2017-08-31T10:36:09.191Z,63.20
2017-08-31T10:38:36.914Z,63.40
2017-08-31T10:41:04.581Z,63.80
2017-08-31T10:43:32.313Z,64.00
2017-08-31T10:45:59.980Z,64.90
2017-08-31T10:48:27.645Z,64.60
2017-08-31T10:50:55.919Z,65.60
2017-08-31T10:53:23.577Z,66.40
2017-08-31T10:55:51.255Z,67.40
2017-08-31T10:58:19.008Z,68.10
2017-08-31T11:00:46.681Z,69.30
2017-08-31T11:03:14.354Z,69.40
2017-08-31T11:05:42.974Z,71.50
2017-08-31T11:08:10.666Z,71.50
2017-08-31T11:10:38.334Z,72.50
2017-08-31T11:13:06.254Z,73.30
2017-08-31T11:15:33.925Z,73.70
2017-08-31T11:18:02.360Z,73.50
2017-08-31T11:20:30.111Z,73.50
2017-08-31T11:22:57.779Z,73.90
2017-08-31T11:25:25.509Z,75.60
2017-08-31T11:27:53.735Z,75.90
2017-08-31T11:30:21.525Z,76.90
2017-08-31T11:32:49.220Z,77.80
2017-08-31T11:35:16.948Z,77.90
2017-08-31T11:37:44.628Z,75.20
2017-08-31T11:40:12.280Z,75.00
2017-08-31T11:42:40.249Z,75.80
2017-08-31T11:45:07.898Z,76.40
2017-08-31T11:47:36.142Z,77.10
2017-08-31T11:50:04.003Z,77.00
2017-08-31T11:52:33.754Z,77.70
2017-08-31T11:55:02.342Z,78.50
2017-08-31T11:57:30.268Z,78.00
2017-08-31T11:59:57.930Z,78.20
2017-08-31T12:02:25.575Z,77.90
2017-08-31T12:04:53.921Z,77.80
2017-08-31T12:07:21.573Z,78.30
2017-08-31T12:09:49.279Z,80.30
2017-08-31T12:12:17.125Z,82.90
2017-08-31T12:14:44.790Z,83.10
2017-08-31T12:17:12.443Z,85.40
2017-08-31T12:19:40.277Z,84.70
2017-08-31T12:22:08.982Z,84.50
2017-08-31T12:24:36.971Z,86.80
2017-08-31T12:27:05.626Z,89.10
2017-08-31T12:29:33.267Z,89.10
2017-08-31T12:32:00.940Z,88.40
2017-08-31T12:34:29.115Z,89.50
2017-08-31T12:36:56.783Z,90.30
2017-08-31T12:39:25.261Z,88.50
2017-08-31T12:41:53.181Z,88.50
2017-08-31T12:44:20.855Z,86.40
2017-08-31T12:46:48.510Z,88.70
2017-08-31T12:49:16.215Z,89.00
2017-08-31T12:51:43.871Z,88.60
2017-08-31T12:54:11.537Z,90.00
2017-08-31T12:56:39.512Z,88.10
2017-08-31T12:59:07.166Z,88.60
2017-08-31T13:01:34.995Z,87.70
2017-08-31T13:04:02.990Z,89.20
2017-08-31T13:06:30.649Z,89.60
2017-08-31T13:08:58.298Z,89.40
2017-08-31T13:11:26.143Z,89.10
2017-08-31T13:13:53.794Z,89.00
2017-08-31T13:16:21.451Z,89.00
2017-08-31T13:18:49.369Z,88.10
2017-08-31T13:21:17.068Z,87.80
2017-08-31T13:23:45.839Z,89.00
2017-08-31T13:26:13.690Z,88.00
2017-08-31T13:28:41.701Z,88.80
2017-08-31T13:31:09.358Z,87.40
2017-08-31T13:33:37.390Z,88.00
2017-08-31T13:36:05.055Z,88.90
2017-08-31T13:38:32.700Z,88.60
2017-08-31T13:41:01.192Z,88.30
2017-08-31T13:43:28.900Z,88.20
2017-08-31T13:45:56.597Z,88.20
2017-08-31T13:48:24.608Z,88.30
2017-08-31T13:50:52.562Z,88.90
2017-08-31T13:53:20.634Z,88.90
2017-08-31T13:55:48.958Z,89.10
2017-08-31T13:58:16.646Z,90.20
2017-08-31T14:00:44.306Z,90.50
2017-08-31T14:03:12.185Z,91.00
2017-08-31T14:05:39.826Z,91.80
2017-08-31T14:08:07.475Z,91.40
2017-08-31T14:10:35.187Z,91.60
2017-08-31T14:13:02.836Z,91.60
2017-08-31T14:15:30.492Z,92.40
2017-08-31T14:17:58.576Z,92.20
2017-08-31T14:20:26.237Z,92.30
2017-08-31T14:22:53.892Z,92.50
2017-08-31T14:25:21.762Z,92.70
2017-08-31T14:27:49.581Z,93.10
2017-08-31T14:30:17.238Z,93.20
2017-08-31T14:32:44.996Z,93.30
2017-08-31T14:35:12.647Z,93.70
2017-08-31T14:37:40.290Z,91.90
2017-08-31T14:40:08.459Z,90.00
2017-08-31T14:42:36.113Z,90.50
2017-08-31T14:45:03.758Z,91.80
2017-08-31T14:47:31.842Z,92.80
2017-08-31T14:49:59.514Z,93.30
2017-08-31T14:52:27.171Z,94.30
2017-08-31T14:54:55.239Z,94.30
2017-08-31T14:57:23.040Z,94.60
2017-08-31T14:59:50.732Z,95.00
2017-08-31T15:02:18.666Z,95.00
2017-08-31T15:04:46.470Z,95.00
2017-08-31T15:07:14.853Z,95.80
2017-08-31T15:09:42.654Z,95.80
2017-08-31T15:12:10.355Z,95.40
2017-08-31T15:14:38.002Z,95.20
2017-08-31T15:17:06.111Z,95.60
2017-08-31T15:19:33.771Z,95.00
2017-08-31T15:22:01.509Z,95.00
2017-08-31T15:24:29.825Z,95.10
2017-08-31T15:26:57.997Z,95.50
2017-08-31T15:29:25.646Z,95.40
2017-08-31T15:31:53.749Z,95.80
2017-08-31T15:34:21.486Z,95.70
2017-08-31T15:36:50.565Z,95.60
2017-08-31T15:39:18.276Z,95.80
2017-08-31T15:41:45.947Z,95.50
2017-08-31T15:44:14.169Z,95.40
2017-08-31T15:46:41.943Z,95.60
2017-08-31T15:49:09.791Z,95.00
2017-08-31T15:51:37.507Z,95.30
2017-08-31T15:54:05.178Z,95.90
2017-08-31T15:56:32.960Z,95.60
2017-08-31T15:59:00.624Z,95.60
2017-08-31T16:01:28.750Z,95.90
2017-08-31T16:03:56.394Z,96.40
2017-08-31T16:06:24.098Z,96.90
2017-08-31T16:08:52.146Z,97.20
2017-08-31T16:11:19.861Z,96.80
2017-08-31T16:13:47.553Z,96.70
2017-08-31T16:16:15.209Z,97.20
2017-08-31T16:18:42.850Z,97.50
2017-08-31T16:21:10.542Z,97.10
2017-08-31T16:23:38.191Z,97.30
2017-08-31T16:26:06.211Z,97.60
2017-08-31T16:28:33.934Z,97.60
2017-08-31T16:31:01.636Z,97.60
2017-08-31T16:33:29.540Z,97.80
2017-08-31T16:35:57.193Z,98.30
2017-08-31T16:38:25.065Z,98.30
2017-08-31T16:40:52.718Z,98.50
2017-08-31T16:43:20.424Z,98.40
2017-08-31T16:45:48.088Z,99.10
2017-08-31T16:48:15.743Z,99.40
2017-08-31T16:50:43.614Z,99.50
2017-08-31T16:53:11.262Z,99.30
2017-08-31T16:55:38.927Z,99.30
2017-08-31T16:58:06.611Z,99.30
2017-08-31T17:00:34.331Z,98.80
2017-08-31T17:03:02.331Z,98.80
2017-08-31T17:05:29.974Z,99.10
2017-08-31T17:07:57.675Z,99.50
2017-08-31T17:10:25.342Z,99.70
2017-08-31T17:12:54.310Z,99.00
2017-08-31T17:15:22.321Z,98.80
2017-08-31T17:17:49.994Z,98.50
2017-08-31T17:20:17.649Z,98.40
2017-08-31T17:22:45.476Z,98.50
2017-08-31T17:25:13.130Z,98.80
2017-08-31T17:27:41.720Z,99.00
2017-08-31T17:30:09.843Z,98.30
2017-08-31T17:32:37.502Z,97.90
2017-08-31T17:35:05.179Z,97.60
2017-08-31T17:37:32.825Z,98.10
2017-08-31T17:40:00.685Z,97.90
2017-08-31T17:42:28.368Z,98.60
2017-08-31T17:44:56.072Z,97.80
2017-08-31T17:47:35.340Z,98.00
2017-08-31T17:50:08.404Z,98.10
2017-08-31T17:52:47.804Z,98.20
2017-08-31T17:55:15.692Z,98.50
2017-08-31T17:57:43.347Z,98.90
2017-08-31T18:00:11.095Z,98.90
2017-08-31T18:02:38.799Z,98.70
2017-08-31T18:05:06.722Z,98.60
2017-08-31T18:07:34.645Z,98.50
2017-08-31T18:10:02.681Z,98.80
2017-08-31T18:12:30.956Z,99.10
2017-08-31T18:14:59.060Z,99.00
2017-08-31T18:17:27.510Z,98.90
2017-08-31T18:19:56.540Z,98.60
2017-08-31T18:22:24.375Z,98.80
2017-08-31T18:24:52.329Z,99.00
2017-08-31T18:27:20.083Z,98.80
2017-08-31T18:29:47.871Z,98.70
2017-08-31T18:32:15.751Z,98.90
2017-08-31T18:34:43.415Z,99.00
2017-08-31T18:37:11.133Z,98.90
2017-08-31T18:39:38.805Z,99.00
2017-08-31T18:42:06.606Z,98.90
2017-08-31T18:44:34.256Z,98.90
2017-08-31T18:47:02.047Z,99.00
2017-08-31T18:49:31.906Z,98.60
2017-08-31T18:51:59.775Z,98.50
2017-08-31T18:54:28.103Z,98.50
2017-08-31T18:56:55.786Z,98.50
2017-08-31T18:59:23.964Z,98.30
2017-08-31T19:01:51.849Z,98.70
2017-08-31T19:04:19.938Z,98.40
2017-08-31T19:06:48.034Z,98.60
2017-08-31T19:09:15.795Z,98.50
2017-08-31T19:11:43.500Z,98.50
2017-08-31T19:14:11.208Z,98.40
2017-08-31T19:16:38.881Z,98.70
2017-08-31T19:19:10.211Z,98.80
2017-08-31T19:21:37.909Z,98.90
2017-08-31T19:24:05.605Z,98.70
2017-08-31T19:26:33.324Z,98.50
2017-08-31T19:29:00.977Z,98.70
2017-08-31T19:31:28.919Z,98.50
2017-08-31T19:33:56.659Z,98.80
2017-08-31T19:36:24.326Z,98.60
2017-08-31T19:38:52.026Z,98.80
2017-08-31T19:41:19.707Z,98.80
2017-08-31T19:43:47.688Z,98.70
2017-08-31T19:46:15.335Z,98.70
2017-08-31T19:48:43.300Z,99.20
2017-08-31T19:51:10.998Z,98.70
2017-08-31T19:53:38.813Z,98.90
2017-08-31T19:56:06.660Z,98.80
2017-08-31T19:58:34.346Z,98.70
2017-08-31T20:01:02.202Z,99.10
2017-08-31T20:03:30.034Z,99.20
2017-08-31T20:05:57.712Z,99.20
2017-08-31T20:08:25.555Z,98.80
2017-08-31T20:10:54.393Z,98.90
2017-08-31T20:13:22.078Z,98.90
2017-08-31T20:15:49.797Z,99.00
2017-08-31T20:18:17.457Z,99.10
2017-08-31T20:20:45.504Z,99.20
2017-08-31T20:23:13.405Z,99.30
2017-08-31T20:25:41.175Z,99.50
2017-08-31T20:28:08.879Z,99.50
2017-08-31T20:30:36.646Z,99.50
2017-08-31T20:33:04.323Z,99.20
2017-08-31T20:35:32.064Z,99.40
2017-08-31T20:37:59.882Z,99.30
2017-08-31T20:40:27.540Z,99.30
2017-08-31T20:42:55.243Z,99.60
2017-08-31T20:45:22.920Z,99.70
2017-08-31T20:47:50.572Z,99.70
2017-08-31T20:50:18.371Z,99.80
2017-08-31T20:52:46.650Z,99.80
2017-08-31T20:55:14.595Z,99.70
2017-08-31T20:57:42.572Z,99.70
2017-08-31T21:00:11.620Z,99.60
2017-08-31T21:02:39.735Z,99.70
2017-08-31T21:05:07.859Z,99.80
2017-08-31T21:07:36.653Z,99.80
2017-08-31T21:10:05.256Z,99.80
2017-08-31T21:12:33.142Z,99.70
2017-08-31T21:15:01.081Z,99.90
2017-08-31T21:17:29.086Z,99.70
2017-08-31T21:19:56.827Z,99.70
2017-08-31T21:22:24.573Z,99.60
2017-08-31T21:24:52.545Z,99.90
2017-08-31T21:27:20.624Z,99.60
2017-08-31T21:29:48.515Z,99.60
2017-08-31T21:32:16.233Z,99.60
2017-08-31T21:34:43.999Z,99.50
2017-08-31T21:37:11.978Z,99.60
2017-08-31T21:39:39.967Z,99.50
2017-08-31T21:42:07.710Z,99.70
2017-08-31T21:44:35.434Z,99.50
2017-08-31T21:47:03.618Z,99.60
2017-08-31T21:49:31.637Z,99.80
2017-08-31T21:51:59.741Z,99.40
2017-08-31T21:54:27.452Z,99.40
2017-08-31T21:56:55.246Z,99.20
2017-08-31T21:59:23.226Z,99.30
2017-08-31T22:01:51.213Z,99.10
2017-08-31T22:04:19.036Z,99.10
2017-08-31T22:06:46.709Z,98.60
2017-08-31T22:09:14.468Z,98.90
2017-08-31T22:11:42.486Z,98.80
2017-08-31T22:16:44.701Z,98.70
2017-08-31T22:19:12.666Z,98.80
2017-08-31T22:21:40.544Z,99.00
2017-08-31T22:24:08.330Z,99.20
2017-08-31T22:26:36.101Z,99.20
2017-08-31T22:29:04.056Z,99.10
2017-08-31T22:31:32.196Z,99.00
2017-08-31T22:34:00.083Z,98.80
2017-08-31T22:36:27.739Z,98.90
2017-08-31T22:38:55.424Z,99.00
2017-08-31T22:41:23.061Z,99.00
2017-08-31T22:43:50.742Z,99.20
2017-08-31T22:46:18.419Z,99.20
2017-08-31T22:48:46.097Z,99.30
2017-08-31T22:51:13.747Z,99.30
2017-08-31T22:53:41.433Z,99.20
2017-08-31T22:56:09.115Z,99.40
2017-08-31T22:58:43.690Z,99.40
2017-08-31T23:01:11.358Z,99.20
2017-08-31T23:03:39.420Z,99.40
2017-08-31T23:06:07.127Z,99.40
2017-08-31T23:08:34.791Z,99.20
2017-08-31T23:11:02.482Z,99.50
2017-08-31T23:13:30.154Z,99.30
2017-08-31T23:15:58.085Z,99.20
2017-08-31T23:18:25.743Z,99.30
2017-08-31T23:20:54.411Z,99.20
2017-08-31T23:23:22.089Z,99.20
2017-08-31T23:25:49.752Z,99.10
2017-08-31T23:28:17.438Z,99.40
2017-08-31T23:30:45.094Z,98.90
2017-08-31T23:33:12.775Z,99.10
2017-08-31T23:35:40.462Z,99.40
2017-08-31T23:38:08.122Z,99.50
2017-08-31T23:40:35.782Z,99.30
2017-08-31T23:43:03.514Z,99.20
2017-08-31T23:45:31.193Z,99.20
2017-08-31T23:47:58.867Z,99.20
2017-08-31T23:50:26.722Z,99.20
2017-08-31T23:52:54.384Z,99.30
2017-08-31T23:55:22.031Z,99.20
2017-08-31T23:57:49.715Z,99.10
